createdAt,value
2019-05-11T00:01:35.449Z,1.70
2019-05-11T00:04:06.344Z,1.83
2019-05-11T00:06:37.180Z,2.00
2019-05-11T00:09:08.556Z,1.90
2019-05-11T00:11:40.362Z,2.40
2019-05-11T00:14:14.422Z,2.50
2019-05-11T00:16:45.240Z,1.90
2019-05-11T00:19:16.226Z,2.20
2019-05-11T00:21:47.116Z,2.40
2019-05-11T00:24:18.151Z,2.33
2019-05-11T00:26:48.928Z,2.57
2019-05-11T00:29:21.507Z,3.10
2019-05-11T00:31:52.385Z,2.40
2019-05-11T00:34:23.285Z,2.17
2019-05-11T00:36:54.081Z,2.70
2019-05-11T00:39:25.812Z,2.30
2019-05-11T00:41:56.629Z,2.47
2019-05-11T00:44:27.480Z,2.93
2019-05-11T00:46:59.473Z,2.17
2019-05-11T00:49:30.335Z,2.43
2019-05-11T00:52:01.109Z,2.17
2019-05-11T00:54:31.885Z,2.17
2019-05-11T00:57:02.622Z,2.50
2019-05-11T00:59:34.598Z,2.80
2019-05-11T01:02:05.552Z,2.53
2019-05-11T01:04:36.513Z,1.93
2019-05-11T01:07:07.416Z,2.30
2019-05-11T01:09:39.590Z,2.62
2019-05-11T01:12:10.364Z,1.90
2019-05-11T01:14:41.390Z,2.17
2019-05-11T01:17:12.227Z,2.83
2019-05-11T01:19:43.155Z,2.47
2019-05-11T01:22:14.108Z,2.17
2019-05-11T01:24:47.018Z,2.67
2019-05-11T01:27:17.968Z,2.63
2019-05-11T01:29:48.785Z,3.20
2019-05-11T01:32:19.805Z,2.97
2019-05-11T01:34:51.623Z,2.37
2019-05-11T01:37:22.623Z,2.60
2019-05-11T01:39:53.509Z,3.07
2019-05-11T01:42:24.670Z,2.07
2019-05-11T01:44:55.507Z,2.07
2019-05-11T01:47:26.411Z,2.17
2019-05-11T01:49:57.256Z,3.20
2019-05-11T01:52:28.879Z,3.40
2019-05-11T01:54:59.648Z,2.70
2019-05-11T01:57:30.367Z,2.17
2019-05-11T02:00:02.215Z,1.87
2019-05-11T02:02:34.835Z,2.03
2019-05-11T02:05:24.760Z,2.90
2019-05-11T02:07:57.133Z,2.30
2019-05-11T02:10:29.039Z,2.33
2019-05-11T02:13:00.044Z,2.40
2019-05-11T02:15:31.020Z,2.60
2019-05-11T02:18:01.917Z,2.10
2019-05-11T02:20:32.764Z,2.10
2019-05-11T02:23:03.631Z,1.92
2019-05-11T02:25:34.931Z,1.87
2019-05-11T02:28:07.557Z,2.10
2019-05-11T02:30:38.437Z,2.00
2019-05-11T02:33:09.352Z,2.80
2019-05-11T02:35:40.650Z,2.80
2019-05-11T02:38:11.553Z,2.67
2019-05-11T02:40:42.473Z,2.27
2019-05-11T02:43:13.308Z,2.50
2019-05-11T02:45:44.194Z,3.27
2019-05-11T02:48:14.888Z,2.37
2019-05-11T02:50:45.971Z,3.00
2019-05-11T02:53:17.407Z,2.70
2019-05-11T02:55:49.858Z,2.07
2019-05-11T02:58:20.936Z,3.70
2019-05-11T03:00:54.200Z,3.53
2019-05-11T03:03:24.965Z,3.23
2019-05-11T03:05:55.820Z,3.43
2019-05-11T03:08:26.807Z,2.30
2019-05-11T03:10:57.708Z,2.20
2019-05-11T03:13:28.543Z,3.13
2019-05-11T03:15:59.384Z,2.80
2019-05-11T03:18:31.000Z,2.07
2019-05-11T03:21:01.836Z,2.60
2019-05-11T03:23:32.683Z,2.57
2019-05-11T03:26:04.250Z,2.33
2019-05-11T03:28:35.129Z,2.40
2019-05-11T03:31:05.938Z,2.70
2019-05-11T03:33:36.904Z,2.10
2019-05-11T03:36:07.784Z,2.50
2019-05-11T03:38:38.566Z,2.23
2019-05-11T03:41:10.468Z,2.10
2019-05-11T03:43:41.298Z,2.83
2019-05-11T03:46:12.084Z,3.37
2019-05-11T03:48:43.708Z,3.30
2019-05-11T03:51:14.711Z,2.70
2019-05-11T03:53:45.465Z,3.62
2019-05-11T03:56:16.402Z,2.70
2019-05-11T03:58:47.378Z,2.20
2019-05-11T04:01:18.177Z,2.50
2019-05-11T04:03:48.983Z,2.53
2019-05-11T04:06:20.013Z,3.33
2019-05-11T04:08:50.833Z,2.47
2019-05-11T04:11:21.879Z,3.23
2019-05-11T04:13:52.984Z,2.40
2019-05-11T04:16:23.758Z,2.17
2019-05-11T04:18:54.682Z,2.50
2019-05-11T04:21:26.355Z,2.53
2019-05-11T04:23:57.159Z,2.57
2019-05-11T04:26:28.019Z,2.43
2019-05-11T04:28:59.342Z,2.43
2019-05-11T04:31:30.081Z,2.40
2019-05-11T04:34:01.031Z,2.93
2019-05-11T04:36:34.181Z,2.50
2019-05-11T04:39:06.759Z,2.10
2019-05-11T04:41:37.754Z,2.47
2019-05-11T04:44:08.597Z,3.50
2019-05-11T04:46:39.984Z,2.70
2019-05-11T04:49:10.823Z,2.37
2019-05-11T04:51:41.662Z,2.97
2019-05-11T04:54:12.707Z,2.93
2019-05-11T04:56:43.742Z,2.40
2019-05-11T04:59:14.463Z,3.00
2019-05-11T05:01:45.296Z,2.67
2019-05-11T05:04:16.222Z,3.42
2019-05-11T05:06:58.850Z,3.10
2019-05-11T05:09:19.701Z,2.80
2019-05-11T05:11:51.679Z,3.27
2019-05-11T05:14:23.160Z,2.67
2019-05-11T05:16:54.119Z,3.30
2019-05-11T05:19:24.887Z,2.80
2019-05-11T05:21:55.787Z,2.40
2019-05-11T05:24:26.750Z,2.63
2019-05-11T05:26:57.753Z,3.30
2019-05-11T05:29:28.782Z,2.60
2019-05-11T05:31:59.528Z,2.83
2019-05-11T05:34:31.316Z,3.10
2019-05-11T05:37:02.274Z,2.47
2019-05-11T05:39:33.297Z,2.60
2019-05-11T05:42:04.209Z,2.30
2019-05-11T05:44:35.243Z,2.50
2019-05-11T05:47:06.408Z,2.53
2019-05-11T05:49:38.265Z,2.57
2019-05-11T05:52:09.481Z,2.83
2019-05-11T05:54:40.572Z,2.60
2019-05-11T05:57:11.476Z,3.55
2019-05-11T05:59:43.300Z,2.77
2019-05-11T06:02:14.453Z,2.60
2019-05-11T06:04:45.339Z,3.00
2019-05-11T06:07:16.077Z,2.50
2019-05-11T06:09:49.035Z,2.37
2019-05-11T06:12:20.104Z,3.00
2019-05-11T06:14:52.918Z,2.80
2019-05-11T06:17:24.671Z,3.23
2019-05-11T06:19:55.574Z,2.30
2019-05-11T06:22:26.584Z,2.57
2019-05-11T06:24:57.638Z,3.03
2019-05-11T06:27:29.018Z,2.80
2019-05-11T06:30:00.174Z,2.87
2019-05-11T06:32:33.199Z,3.80
2019-05-11T06:35:04.438Z,3.10
2019-05-11T06:37:35.521Z,3.03
2019-05-11T06:40:06.972Z,3.00
2019-05-11T06:42:37.808Z,3.03
2019-05-11T06:45:08.997Z,3.03
2019-05-11T06:47:40.196Z,2.80
2019-05-11T06:50:11.260Z,3.43
2019-05-11T06:52:42.172Z,3.10
2019-05-11T06:55:13.858Z,3.55
2019-05-11T06:57:44.828Z,3.80
2019-05-11T07:00:15.834Z,2.80
2019-05-11T07:02:46.685Z,3.17
2019-05-11T07:05:17.460Z,3.70
2019-05-11T07:07:48.880Z,2.67
2019-05-11T07:10:19.705Z,3.40
2019-05-11T07:12:52.448Z,3.33
2019-05-11T07:15:23.643Z,3.57
2019-05-11T07:17:56.040Z,3.08
2019-05-11T07:20:27.130Z,3.30
2019-05-11T07:22:57.973Z,2.87
2019-05-11T07:25:28.729Z,2.50
2019-05-11T07:28:00.816Z,3.20
2019-05-11T07:30:31.696Z,2.47
2019-05-11T07:33:02.475Z,3.15
2019-05-11T07:35:33.726Z,2.30
2019-05-11T07:38:05.614Z,3.05
2019-05-11T07:40:38.448Z,2.77
2019-05-11T07:43:10.814Z,2.72
2019-05-11T07:45:41.739Z,2.67
2019-05-11T07:48:12.520Z,2.80
2019-05-11T07:50:43.609Z,2.60
2019-05-11T07:53:14.600Z,2.75
2019-05-11T07:55:45.698Z,2.63
2019-05-11T07:58:20.392Z,3.70
2019-05-11T08:00:50.487Z,2.77
2019-05-11T08:03:21.493Z,2.80
2019-05-11T08:05:52.456Z,2.00
2019-05-11T08:08:25.371Z,3.10
2019-05-11T08:10:58.649Z,2.50
2019-05-11T08:13:31.783Z,2.20
2019-05-11T08:16:02.685Z,3.00
2019-05-11T08:18:33.867Z,2.90
2019-05-11T08:21:06.026Z,3.10
2019-05-11T08:23:37.843Z,2.57
2019-05-11T08:26:08.779Z,3.07
2019-05-11T08:28:39.571Z,3.23
2019-05-11T08:31:10.583Z,2.50
2019-05-11T08:33:41.513Z,2.90
2019-05-11T08:36:12.470Z,2.47
2019-05-11T08:38:44.282Z,2.60
2019-05-11T08:41:18.712Z,2.62
2019-05-11T08:43:49.599Z,3.47
2019-05-11T08:46:21.157Z,2.62
2019-05-11T08:48:52.147Z,3.00
2019-05-11T08:51:23.144Z,2.57
2019-05-11T08:53:54.788Z,2.40
2019-05-11T08:56:25.635Z,2.60
2019-05-11T08:58:58.799Z,2.67
2019-05-11T09:01:31.302Z,2.47
2019-05-11T09:04:02.885Z,2.70
2019-05-11T09:06:37.653Z,2.13
2019-05-11T09:09:12.805Z,2.70
2019-05-11T09:11:44.283Z,2.37
2019-05-11T09:14:16.080Z,2.47
2019-05-11T09:16:51.897Z,2.10
2019-05-11T09:19:28.581Z,2.37
2019-05-11T09:22:03.278Z,3.30
2019-05-11T09:24:38.457Z,3.00
2019-05-11T09:27:11.241Z,2.50
2019-05-11T09:29:44.190Z,2.43
2019-05-11T09:32:20.059Z,2.90
2019-05-11T09:35:00.438Z,3.40
2019-05-11T09:37:34.949Z,2.57
2019-05-11T09:40:07.896Z,2.37
2019-05-11T09:42:39.063Z,2.20
2019-05-11T09:45:10.341Z,2.20
2019-05-11T09:47:41.129Z,3.17
2019-05-11T09:50:12.627Z,2.53
2019-05-11T09:52:45.709Z,2.53
2019-05-11T09:55:21.037Z,2.80
2019-05-11T09:57:53.174Z,2.93
2019-05-11T10:00:24.889Z,2.80
2019-05-11T10:02:57.776Z,3.33
2019-05-11T10:05:28.860Z,2.27
2019-05-11T10:08:01.022Z,2.17
2019-05-11T10:10:31.988Z,1.93
2019-05-11T10:13:03.252Z,2.47
2019-05-11T10:15:34.134Z,2.10
2019-05-11T10:18:08.029Z,2.05
2019-05-11T10:20:39.181Z,2.17
2019-05-11T10:23:12.073Z,2.00
2019-05-11T10:25:43.068Z,1.90
2019-05-11T10:28:14.372Z,2.07
2019-05-11T10:30:45.921Z,1.93
2019-05-11T10:33:19.590Z,2.60
2019-05-11T10:35:52.297Z,2.10
2019-05-11T10:38:23.248Z,2.33
2019-05-11T10:40:54.244Z,2.20
2019-05-11T10:43:24.946Z,2.37
2019-05-11T10:45:55.838Z,2.00
2019-05-11T10:48:28.198Z,2.30
2019-05-11T10:50:58.955Z,1.97
2019-05-11T10:53:31.573Z,2.20
2019-05-11T10:56:03.204Z,2.10
2019-05-11T10:58:37.761Z,1.83
2019-05-11T11:01:09.639Z,2.10
2019-05-11T11:03:43.013Z,2.57
2019-05-11T11:06:13.952Z,1.80
2019-05-11T11:08:44.948Z,1.93
2019-05-11T11:11:18.279Z,1.93
2019-05-11T11:13:48.556Z,2.00
2019-05-11T11:16:35.069Z,1.80
2019-05-11T11:18:52.298Z,1.72
2019-05-11T11:21:23.436Z,1.93
2019-05-11T11:23:59.615Z,2.40
2019-05-11T11:26:31.537Z,1.80
2019-05-11T11:29:02.357Z,2.00
2019-05-11T11:31:33.161Z,1.73
2019-05-11T11:34:04.120Z,2.03
2019-05-11T11:36:35.016Z,1.73
2019-05-11T11:39:08.587Z,1.50
2019-05-11T11:41:41.291Z,2.03
2019-05-11T11:44:12.269Z,1.47
2019-05-11T11:46:52.049Z,1.77
2019-05-11T11:49:18.780Z,1.47
2019-05-11T11:51:51.313Z,1.50
2019-05-11T11:54:23.126Z,1.47
2019-05-11T11:56:54.039Z,1.60
2019-05-11T11:59:28.823Z,1.60
2019-05-11T12:01:59.725Z,1.20
2019-05-11T12:04:30.627Z,1.27
2019-05-11T12:07:01.541Z,1.57
2019-05-11T12:09:32.506Z,1.47
2019-05-11T12:12:03.388Z,1.50
2019-05-11T12:14:34.264Z,1.22
2019-05-11T12:17:11.207Z,1.40
2019-05-11T12:19:42.284Z,1.37
2019-05-11T12:22:18.854Z,2.07
2019-05-11T12:24:48.385Z,0.97
2019-05-11T12:27:19.443Z,2.40
2019-05-11T12:29:50.466Z,1.40
2019-05-11T12:32:27.645Z,1.35
2019-05-11T12:34:59.646Z,1.50
2019-05-11T12:37:30.591Z,1.17
2019-05-11T12:40:01.485Z,1.30
2019-05-11T12:42:34.263Z,1.50
2019-05-11T12:45:07.570Z,1.20
2019-05-11T12:47:38.721Z,1.33
2019-05-11T12:50:11.161Z,1.22
2019-05-11T12:52:42.096Z,1.13
2019-05-11T12:55:13.607Z,1.42
2019-05-11T12:57:47.326Z,1.57
2019-05-11T13:00:19.421Z,1.30
2019-05-11T13:02:50.619Z,1.30
2019-05-11T13:05:21.402Z,1.42
2019-05-11T13:07:54.118Z,1.27
2019-05-11T13:10:25.348Z,1.20
2019-05-11T13:12:58.116Z,1.60
2019-05-11T13:15:31.753Z,1.30
2019-05-11T13:18:02.562Z,1.40
2019-05-11T13:20:33.465Z,1.20
2019-05-11T13:23:04.372Z,1.40
2019-05-11T13:25:38.778Z,1.20
2019-05-11T13:28:10.191Z,1.50
2019-05-11T13:30:41.309Z,1.57
2019-05-11T13:33:12.218Z,1.10
2019-05-11T13:35:43.391Z,1.43
2019-05-11T13:38:14.418Z,1.47
2019-05-11T13:40:45.204Z,1.00
2019-05-11T13:43:15.925Z,1.17
2019-05-11T13:45:47.960Z,0.87
2019-05-11T13:48:19.028Z,1.40
2019-05-11T13:50:50.647Z,1.23
2019-05-11T13:53:21.820Z,1.27
2019-05-11T13:55:52.848Z,1.07
2019-05-11T13:58:23.893Z,1.10
2019-05-11T14:00:55.073Z,1.60
2019-05-11T14:03:27.697Z,1.53
2019-05-11T14:05:58.932Z,1.90
2019-05-11T14:08:29.801Z,1.40
2019-05-11T14:11:00.784Z,1.53
2019-05-11T14:13:31.962Z,1.40
2019-05-11T14:16:02.901Z,1.30
2019-05-11T14:18:34.300Z,1.47
2019-05-11T14:21:07.838Z,1.25
2019-05-11T14:23:38.851Z,1.20
2019-05-11T14:26:09.873Z,1.10
2019-05-11T14:28:40.741Z,1.20
2019-05-11T14:31:11.716Z,1.37
2019-05-11T14:33:42.670Z,1.10
2019-05-11T14:36:14.847Z,1.17
2019-05-11T14:38:45.852Z,0.80
2019-05-11T14:41:18.279Z,1.50
2019-05-11T14:43:49.558Z,1.37
2019-05-11T14:46:28.163Z,1.12
2019-05-11T14:48:59.298Z,1.47
2019-05-11T14:51:29.983Z,1.30
2019-05-11T14:54:03.495Z,1.40
2019-05-11T14:56:34.348Z,1.00
2019-05-11T14:59:08.913Z,1.50
2019-05-11T15:01:40.760Z,1.10
2019-05-11T15:04:11.692Z,1.32
2019-05-11T15:06:42.511Z,1.27
2019-05-11T15:09:15.129Z,1.33
2019-05-11T15:11:47.885Z,1.10
2019-05-11T15:14:22.088Z,1.00
2019-05-11T15:16:52.354Z,1.37
2019-05-11T15:19:24.105Z,1.43
2019-05-11T15:21:55.019Z,0.87
2019-05-11T15:24:28.654Z,1.00
2019-05-11T15:26:58.896Z,1.13
2019-05-11T15:29:29.687Z,1.17
2019-05-11T15:32:00.650Z,1.17
2019-05-11T15:34:31.455Z,0.93
2019-05-11T15:37:03.181Z,1.03
2019-05-11T15:39:33.996Z,1.50
2019-05-11T15:42:13.372Z,1.00
2019-05-11T15:44:40.272Z,0.60
2019-05-11T15:47:11.235Z,1.20
2019-05-11T15:49:42.295Z,1.27
2019-05-11T15:52:15.473Z,1.00
2019-05-11T15:54:46.620Z,1.13
2019-05-11T15:57:17.997Z,1.10
2019-05-11T15:59:49.776Z,0.67
2019-05-11T16:02:20.602Z,1.67
2019-05-11T16:04:52.069Z,1.00
2019-05-11T16:07:23.805Z,1.07
2019-05-11T16:09:57.694Z,0.70
2019-05-11T16:12:28.750Z,1.20
2019-05-11T16:14:59.627Z,1.20
2019-05-11T16:17:30.542Z,0.90
2019-05-11T16:20:01.504Z,2.40
2019-05-11T16:22:32.528Z,2.73
2019-05-11T16:25:03.372Z,1.87
2019-05-11T16:27:34.291Z,1.93
2019-05-11T16:30:06.535Z,2.40
2019-05-11T16:32:38.619Z,2.20
2019-05-11T16:35:10.369Z,1.60
2019-05-11T16:37:41.334Z,1.92
2019-05-11T16:40:12.402Z,2.00
2019-05-11T16:42:43.441Z,1.77
2019-05-11T16:45:15.560Z,1.67
2019-05-11T16:47:48.343Z,1.53
2019-05-11T16:50:19.008Z,1.70
2019-05-11T16:52:50.136Z,1.40
2019-05-11T16:55:21.436Z,1.00
2019-05-11T16:57:52.975Z,1.40
2019-05-11T17:00:23.808Z,1.00
2019-05-11T17:02:54.752Z,1.27
2019-05-11T17:05:29.777Z,1.10
2019-05-11T17:08:00.704Z,1.20
2019-05-11T17:10:31.972Z,1.07
2019-05-11T17:13:02.788Z,1.10
2019-05-11T17:15:33.793Z,0.70
2019-05-11T17:18:08.094Z,1.10
2019-05-11T17:20:39.588Z,1.50
2019-05-11T17:23:11.326Z,1.93
2019-05-11T17:25:42.301Z,1.30
2019-05-11T17:28:13.531Z,1.32
2019-05-11T17:30:45.208Z,1.20
2019-05-11T17:33:17.995Z,1.27
2019-05-11T17:35:50.593Z,1.17
2019-05-11T17:38:21.733Z,1.00
2019-05-11T17:40:52.851Z,1.03
2019-05-11T17:43:23.727Z,2.20
2019-05-11T17:45:54.636Z,1.50
2019-05-11T17:48:25.523Z,1.40
2019-05-11T17:50:58.150Z,1.00
2019-05-11T17:53:29.741Z,1.17
2019-05-11T17:56:00.754Z,1.23
2019-05-11T17:58:31.934Z,4.57
2019-05-11T18:01:02.961Z,1.80
2019-05-11T18:03:33.969Z,1.33
2019-05-11T18:06:05.326Z,1.55
2019-05-11T18:08:36.340Z,1.30
2019-05-11T18:11:08.372Z,1.10
2019-05-11T18:13:39.626Z,1.03
2019-05-11T18:16:11.690Z,1.00
2019-05-11T18:18:42.690Z,1.60
2019-05-11T18:21:13.654Z,1.43
2019-05-11T18:23:44.718Z,1.10
2019-05-11T18:26:17.935Z,1.00
2019-05-11T18:28:48.410Z,1.10
2019-05-11T18:31:19.211Z,0.80
2019-05-11T18:33:51.699Z,1.20
2019-05-11T18:36:22.844Z,1.00
2019-05-11T18:38:55.166Z,0.80
2019-05-11T18:41:28.251Z,1.00
2019-05-11T18:43:59.423Z,1.40
2019-05-11T18:46:30.321Z,1.00
2019-05-11T18:49:01.432Z,0.87
2019-05-11T18:51:33.201Z,0.90
2019-05-11T18:54:04.058Z,1.07
2019-05-11T18:56:35.044Z,0.95
2019-05-11T18:59:08.633Z,1.23
2019-05-11T19:01:39.062Z,1.17
2019-05-11T19:04:10.043Z,1.07
2019-05-11T19:06:41.053Z,0.70
2019-05-11T19:09:12.098Z,1.37
2019-05-11T19:11:43.089Z,1.03
2019-05-11T19:14:13.827Z,0.77
2019-05-11T19:16:44.697Z,1.07
2019-05-11T19:19:15.631Z,0.83
2019-05-11T19:21:48.180Z,1.92
2019-05-11T19:24:19.312Z,0.75
2019-05-11T19:26:51.412Z,1.10
2019-05-11T19:29:22.656Z,1.00
2019-05-11T19:31:53.586Z,0.87
2019-05-11T19:34:24.355Z,1.03
2019-05-11T19:36:57.967Z,0.93
2019-05-11T19:39:28.877Z,1.53
2019-05-11T19:41:59.963Z,1.37
2019-05-11T19:44:32.004Z,0.77
2019-05-11T19:47:02.826Z,1.07
2019-05-11T19:49:33.778Z,1.00
2019-05-11T19:52:05.323Z,1.12
2019-05-11T19:54:38.248Z,0.90
2019-05-11T19:57:09.877Z,1.00
2019-05-11T19:59:40.656Z,1.00
2019-05-11T20:02:11.734Z,0.88
2019-05-11T20:04:42.768Z,0.97
2019-05-11T20:07:13.618Z,0.97
2019-05-11T20:09:44.660Z,1.17
2019-05-11T20:12:17.872Z,1.30
2019-05-11T20:14:48.322Z,0.90
2019-05-11T20:17:19.098Z,1.17
2019-05-11T20:19:49.978Z,1.05
2019-05-11T20:22:21.043Z,1.25
2019-05-11T20:24:52.018Z,0.80
2019-05-11T20:27:22.826Z,0.77
2019-05-11T20:29:54.658Z,0.87
2019-05-11T20:32:27.835Z,0.80
2019-05-11T20:34:58.184Z,1.03
2019-05-11T20:37:30.863Z,1.20
2019-05-11T20:40:01.665Z,0.80
2019-05-11T20:42:32.673Z,0.90
2019-05-11T20:45:04.634Z,0.80
2019-05-11T20:47:38.019Z,1.30
2019-05-11T20:50:09.228Z,0.90
2019-05-11T20:52:41.347Z,0.90
2019-05-11T20:55:14.423Z,0.97
2019-05-11T20:57:48.315Z,0.63
2019-05-11T21:00:21.436Z,0.80
2019-05-11T21:02:52.520Z,0.77
2019-05-11T21:05:23.441Z,1.10
2019-05-11T21:07:54.935Z,1.05
2019-05-11T21:10:28.144Z,1.00
2019-05-11T21:12:59.288Z,0.77
2019-05-11T21:15:30.238Z,0.82
2019-05-11T21:18:01.693Z,0.80
2019-05-11T21:20:32.653Z,0.60
2019-05-11T21:23:04.284Z,1.30
2019-05-11T21:25:37.658Z,0.70
2019-05-11T21:28:08.739Z,0.93
2019-05-11T21:30:40.016Z,0.80
2019-05-11T21:33:11.085Z,0.80
2019-05-11T21:35:42.364Z,0.90
2019-05-11T21:38:13.317Z,1.80
2019-05-11T21:40:44.335Z,0.63
2019-05-11T21:43:15.283Z,0.82
2019-05-11T21:45:46.621Z,0.70
2019-05-11T21:48:17.677Z,0.88
2019-05-11T21:50:48.794Z,1.00
2019-05-11T21:53:19.579Z,1.00
2019-05-11T21:55:50.566Z,0.80
2019-05-11T21:58:21.302Z,1.02
2019-05-11T22:00:54.267Z,0.90
2019-05-11T22:03:28.071Z,0.80
2019-05-11T22:06:00.084Z,1.10
2019-05-11T22:08:32.061Z,0.90
2019-05-11T22:11:03.058Z,0.87
2019-05-11T22:13:37.763Z,0.77
2019-05-11T22:16:08.681Z,1.47
2019-05-11T22:18:40.256Z,1.07
2019-05-11T22:21:11.040Z,0.60
2019-05-11T22:23:42.011Z,1.13
2019-05-11T22:26:14.702Z,0.87
2019-05-11T22:28:48.143Z,0.80
2019-05-11T22:31:18.797Z,1.00
2019-05-11T22:33:49.799Z,0.83
2019-05-11T22:36:20.678Z,0.70
2019-05-11T22:38:51.518Z,0.67
2019-05-11T22:41:22.456Z,1.15
2019-05-11T22:43:53.697Z,1.10
2019-05-11T22:46:27.897Z,1.03
2019-05-11T22:48:58.386Z,0.70
2019-05-11T22:51:29.488Z,0.83
2019-05-11T22:54:00.323Z,1.00
2019-05-11T22:56:31.216Z,0.93
2019-05-11T22:59:01.975Z,1.15
2019-05-11T23:01:32.795Z,0.60
2019-05-11T23:04:03.797Z,0.87
2019-05-11T23:06:34.616Z,1.63
2019-05-11T23:09:07.978Z,1.07
2019-05-11T23:11:39.215Z,0.90
2019-05-11T23:14:10.279Z,0.60
2019-05-11T23:16:41.246Z,1.03
2019-05-11T23:19:12.157Z,1.13
2019-05-11T23:21:44.664Z,0.90
2019-05-11T23:24:15.356Z,0.57
2019-05-11T23:26:48.020Z,0.87
2019-05-11T23:29:19.106Z,1.10
2019-05-11T23:31:50.121Z,1.00
2019-05-11T23:34:21.157Z,0.70
2019-05-11T23:36:52.551Z,0.70
2019-05-11T23:39:23.735Z,0.70
2019-05-11T23:41:54.628Z,1.13
2019-05-11T23:44:25.571Z,0.87
2019-05-11T23:46:56.319Z,0.70
2019-05-11T23:49:27.239Z,1.02
2019-05-11T23:51:58.386Z,0.87
2019-05-11T23:54:29.331Z,1.07
2019-05-11T23:57:00.090Z,0.90
2019-05-11T23:59:30.826Z,0.83
